createdAt,value
2018-12-26T00:00:13.974Z,0.10
2018-12-26T00:02:44.125Z,0.10
2018-12-26T00:05:12.546Z,0.10
2018-12-26T00:07:43.659Z,0.00
2018-12-26T00:10:13.733Z,0.00
2018-12-26T00:12:49.018Z,0.00
2018-12-26T00:15:17.650Z,0.00
2018-12-26T00:17:46.065Z,0.00
2018-12-26T00:20:14.523Z,-0.10
2018-12-26T00:22:51.939Z,0.00
2018-12-26T00:25:23.452Z,0.00
2018-12-26T00:27:57.626Z,0.00
2018-12-26T00:30:30.654Z,0.00
2018-12-26T00:33:00.749Z,-0.10
2018-12-26T00:35:29.214Z,-0.10
2018-12-26T00:38:06.700Z,-0.10
2018-12-26T00:40:35.162Z,-0.10
2018-12-26T00:43:03.635Z,0.00
2018-12-26T00:45:37.853Z,-0.10
2018-12-26T00:48:10.887Z,-0.10
2018-12-26T00:50:45.204Z,-0.10
2018-12-26T00:53:21.203Z,-0.20
2018-12-26T00:55:50.281Z,-0.20
2018-12-26T00:58:18.724Z,-0.30
2018-12-26T01:00:47.145Z,-0.40
2018-12-26T01:03:21.473Z,-0.40
2018-12-26T01:05:49.908Z,-0.50
2018-12-26T01:08:18.396Z,-0.50
2018-12-26T01:10:46.846Z,-0.60
2018-12-26T01:13:15.303Z,-0.60
2018-12-26T01:15:50.665Z,-0.70
2018-12-26T01:18:23.290Z,-0.70
2018-12-26T01:20:54.914Z,-0.70
2018-12-26T01:23:30.565Z,-0.70
2018-12-26T01:26:02.633Z,-0.80
2018-12-26T01:28:31.091Z,-0.80
2018-12-26T01:30:59.514Z,-0.80
2018-12-26T01:33:30.870Z,-0.80
2018-12-26T01:36:06.652Z,-0.80
2018-12-26T01:38:41.029Z,-0.70
2018-12-26T01:41:12.210Z,-0.70
2018-12-26T01:43:42.280Z,-0.60
2018-12-26T01:46:10.746Z,-0.60
2018-12-26T01:48:42.368Z,-0.60
2018-12-26T01:51:13.623Z,-0.50
2018-12-26T01:53:45.031Z,-0.40
2018-12-26T01:56:13.556Z,-0.40
2018-12-26T01:58:42.093Z,-0.30
2018-12-26T02:01:10.517Z,-0.30
2018-12-26T02:03:49.285Z,-0.20
2018-12-26T02:06:17.715Z,-0.20
2018-12-26T02:08:48.905Z,-0.10
2018-12-26T02:11:19.281Z,-0.10
2018-12-26T02:13:52.792Z,0.00
2018-12-26T02:16:21.217Z,0.00
2018-12-26T02:18:49.721Z,0.00
2018-12-26T02:21:18.146Z,0.00
2018-12-26T02:23:47.201Z,0.10
2018-12-26T02:26:22.135Z,0.10
2018-12-26T02:28:50.618Z,0.10
2018-12-26T02:31:24.814Z,0.10
2018-12-26T02:33:58.814Z,0.20
2018-12-26T02:36:30.259Z,0.20
2018-12-26T02:39:15.257Z,0.20
2018-12-26T02:41:46.395Z,0.20
2018-12-26T02:44:15.046Z,0.20
2018-12-26T02:46:43.454Z,0.20
2018-12-26T02:49:11.914Z,0.20
2018-12-26T02:51:40.327Z,0.10
2018-12-26T02:54:11.832Z,0.20
2018-12-26T02:56:47.488Z,0.10
2018-12-26T02:59:19.268Z,0.10
2018-12-26T03:01:53.730Z,0.10
2018-12-26T03:04:24.594Z,0.10
2018-12-26T03:06:55.985Z,0.10
2018-12-26T03:09:24.900Z,0.00
2018-12-26T03:11:57.689Z,0.00
2018-12-26T03:14:26.403Z,0.00
2018-12-26T03:16:54.903Z,0.00
2018-12-26T03:19:24.947Z,0.00
2018-12-26T03:21:56.404Z,0.00
2018-12-26T03:24:26.786Z,-0.10
2018-12-26T03:26:56.418Z,-0.10
2018-12-26T03:29:37.099Z,-0.10
2018-12-26T03:32:05.570Z,-0.10
2018-12-26T03:34:34.644Z,-0.10
2018-12-26T03:37:08.961Z,-0.20
2018-12-26T03:39:41.861Z,-0.20
2018-12-26T03:42:13.257Z,-0.20
2018-12-26T03:44:44.790Z,-0.30
2018-12-26T03:47:16.902Z,-0.30
2018-12-26T03:49:48.578Z,-0.40
2018-12-26T03:52:17.534Z,-0.40
2018-12-26T03:54:48.736Z,-0.50
2018-12-26T03:57:19.852Z,-0.50
2018-12-26T03:59:55.969Z,-0.50
2018-12-26T04:02:24.386Z,-0.50
2018-12-26T04:04:55.831Z,-0.50
2018-12-26T04:07:24.269Z,-0.50
2018-12-26T04:09:58.434Z,-0.50
2018-12-26T04:12:31.496Z,-0.50
2018-12-26T04:15:00.013Z,-0.50
2018-12-26T04:17:30.386Z,-0.50
2018-12-26T04:20:05.626Z,-0.50
2018-12-26T04:22:34.242Z,-0.50
2018-12-26T04:25:04.328Z,-0.40
2018-12-26T04:27:37.967Z,-0.40
2018-12-26T04:30:17.854Z,-0.30
2018-12-26T04:32:56.859Z,-0.30
2018-12-26T04:35:27.999Z,-0.30
2018-12-26T04:38:00.696Z,-0.20
2018-12-26T04:40:30.777Z,-0.20
2018-12-26T04:43:02.247Z,-0.30
2018-12-26T04:45:30.701Z,-0.30
2018-12-26T04:47:59.118Z,-0.40
2018-12-26T04:50:29.173Z,-0.50
2018-12-26T04:53:03.249Z,-0.60
2018-12-26T04:55:39.414Z,-0.60
2018-12-26T04:58:15.421Z,-0.70
2018-12-26T05:00:48.171Z,-0.80
2018-12-26T05:03:22.704Z,-0.80
2018-12-26T05:05:52.378Z,-0.90
2018-12-26T05:08:26.518Z,-1.00
2018-12-26T05:11:03.897Z,-1.00
2018-12-26T05:13:32.343Z,-1.10
2018-12-26T05:16:03.877Z,-1.20
2018-12-26T05:18:34.784Z,-1.20
2018-12-26T05:21:05.162Z,-1.20
2018-12-26T05:23:43.025Z,-1.20
2018-12-26T05:26:14.422Z,-1.20
2018-12-26T05:28:45.904Z,-1.20
2018-12-26T05:31:18.786Z,-1.20
2018-12-26T05:33:53.010Z,-1.10
2018-12-26T05:36:24.440Z,-1.00
2018-12-26T05:38:55.710Z,-1.00
2018-12-26T05:41:27.582Z,-0.90
2018-12-26T05:43:56.637Z,-0.80
2018-12-26T05:46:26.710Z,-0.80
2018-12-26T05:49:00.756Z,-0.70
2018-12-26T05:51:29.178Z,-0.60
2018-12-26T05:54:00.571Z,-0.50
2018-12-26T05:56:33.338Z,-0.50
2018-12-26T05:59:08.504Z,-0.40
2018-12-26T06:01:42.309Z,-0.40
2018-12-26T06:04:12.379Z,-0.40
2018-12-26T06:06:40.826Z,-0.30
2018-12-26T06:09:10.414Z,-0.40
2018-12-26T06:11:43.150Z,-0.40
2018-12-26T06:14:14.257Z,-0.30
2018-12-26T06:16:48.610Z,-0.30
2018-12-26T06:19:19.925Z,-0.30
2018-12-26T06:21:53.582Z,-0.30
2018-12-26T06:24:26.410Z,-0.30
2018-12-26T06:27:02.398Z,-0.20
2018-12-26T06:29:33.714Z,-0.20
2018-12-26T06:32:02.172Z,-0.20
2018-12-26T06:34:43.077Z,-0.30
2018-12-26T06:37:11.515Z,-0.20
2018-12-26T06:39:39.962Z,-0.20
2018-12-26T06:42:14.490Z,-0.20
2018-12-26T06:44:47.267Z,-0.20
2018-12-26T06:47:15.738Z,-0.20
2018-12-26T06:49:45.389Z,-0.20
2018-12-26T06:52:13.896Z,-0.20
2018-12-26T06:54:43.337Z,-0.20
2018-12-26T06:57:19.335Z,-0.20
2018-12-26T06:59:50.469Z,-0.20
2018-12-26T07:02:25.427Z,-0.20
2018-12-26T07:04:54.109Z,-0.20
2018-12-26T07:07:24.185Z,-0.20
2018-12-26T07:10:00.222Z,-0.20
2018-12-26T07:12:31.534Z,-0.20
2018-12-26T07:15:03.186Z,-0.20
2018-12-26T07:17:33.606Z,-0.20
2018-12-26T07:20:02.807Z,-0.20
2018-12-26T07:22:31.221Z,-0.20
2018-12-26T07:25:02.359Z,-0.10
2018-12-26T07:27:33.570Z,-0.10
2018-12-26T07:30:09.024Z,-0.10
2018-12-26T07:32:37.454Z,-0.10
2018-12-26T07:35:08.566Z,-0.10
2018-12-26T07:37:38.662Z,-0.20
2018-12-26T07:40:08.746Z,-0.20
2018-12-26T07:42:47.822Z,-0.10
2018-12-26T07:45:18.879Z,-0.20
2018-12-26T07:47:53.443Z,-0.20
2018-12-26T07:50:26.086Z,-0.20
2018-12-26T07:52:56.174Z,-0.20
2018-12-26T07:55:26.231Z,-0.20
2018-12-26T07:57:59.179Z,-0.20
2018-12-26T08:00:29.193Z,-0.20
2018-12-26T08:03:00.306Z,-0.20
2018-12-26T08:05:31.638Z,-0.20
2018-12-26T08:08:00.049Z,-0.10
2018-12-26T08:10:28.956Z,-0.10
2018-12-26T08:12:59.022Z,-0.10
2018-12-26T08:15:27.523Z,-0.10
2018-12-26T08:17:56.589Z,-0.10
2018-12-26T08:20:38.906Z,-0.10
2018-12-26T08:23:13.018Z,-0.10
2018-12-26T08:25:41.451Z,-0.10
2018-12-26T08:28:09.890Z,-0.10
2018-12-26T08:30:43.855Z,-0.10
2018-12-26T08:33:15.625Z,0.00
2018-12-26T08:35:44.037Z,0.00
2018-12-26T08:38:14.123Z,0.00
2018-12-26T08:40:46.598Z,-0.10
2018-12-26T08:43:16.677Z,0.00
2018-12-26T08:45:48.101Z,0.00
2018-12-26T08:48:16.554Z,0.00
2018-12-26T08:50:52.417Z,0.00
2018-12-26T08:53:23.522Z,0.00
2018-12-26T08:55:51.966Z,0.00
2018-12-26T08:58:41.821Z,0.00
2018-12-26T09:01:13.209Z,0.00
2018-12-26T09:03:44.345Z,0.10
2018-12-26T09:06:19.057Z,0.10
2018-12-26T09:08:47.522Z,0.10
2018-12-26T09:11:17.583Z,0.20
2018-12-26T09:13:49.663Z,0.30
2018-12-26T09:16:18.345Z,0.30
2018-12-26T09:18:46.763Z,0.40
2018-12-26T09:21:21.841Z,0.50
2018-12-26T09:23:53.257Z,0.60
2018-12-26T09:26:33.678Z,0.70
2018-12-26T09:29:04.802Z,0.80
2018-12-26T09:31:41.310Z,0.90
2018-12-26T09:34:15.856Z,1.00
2018-12-26T09:36:50.062Z,1.10
2018-12-26T09:39:24.186Z,1.10
2018-12-26T09:41:55.453Z,1.20
2018-12-26T09:44:29.871Z,1.30
2018-12-26T09:47:00.998Z,1.40
2018-12-26T09:49:30.962Z,1.50
2018-12-26T09:52:02.198Z,1.70
2018-12-26T09:54:30.653Z,1.80
2018-12-26T09:57:03.616Z,1.80
2018-12-26T09:59:32.044Z,1.90
2018-12-26T10:02:03.504Z,1.90
2018-12-26T10:04:35.009Z,1.90
2018-12-26T10:07:03.698Z,1.80
2018-12-26T10:09:35.161Z,1.90
2018-12-26T10:12:03.564Z,2.10
2018-12-26T10:14:31.982Z,2.10
2018-12-26T10:17:02.071Z,2.20
2018-12-26T10:19:33.262Z,2.10
2018-12-26T10:22:03.210Z,2.10
2018-12-26T10:24:33.348Z,2.10
2018-12-26T10:27:06.384Z,2.00
2018-12-26T10:29:40.653Z,2.00
2018-12-26T10:32:09.103Z,2.10
2018-12-26T10:34:37.858Z,2.00
2018-12-26T10:37:09.181Z,2.10
2018-12-26T10:39:41.174Z,2.20
2018-12-26T10:42:11.289Z,2.20
2018-12-26T10:44:39.695Z,2.30
2018-12-26T10:47:17.748Z,2.50
2018-12-26T10:49:51.950Z,2.60
2018-12-26T10:52:23.121Z,2.70
2018-12-26T10:54:51.766Z,2.80
2018-12-26T10:57:24.731Z,3.00
2018-12-26T10:59:56.098Z,3.30
2018-12-26T11:02:27.529Z,3.80
2018-12-26T11:04:56.463Z,4.20
2018-12-26T11:07:26.514Z,4.50
2018-12-26T11:09:57.727Z,4.60
2018-12-26T11:12:31.938Z,4.50
2018-12-26T11:15:03.610Z,4.30
2018-12-26T11:17:32.201Z,4.10
2018-12-26T11:20:04.890Z,3.90
2018-12-26T11:22:34.942Z,3.80
2018-12-26T11:25:07.747Z,3.70
2018-12-26T11:27:41.782Z,3.50
2018-12-26T11:30:11.269Z,3.30
2018-12-26T11:32:45.674Z,3.20
2018-12-26T11:35:14.094Z,3.10
2018-12-26T11:37:44.371Z,3.00
2018-12-26T11:40:15.434Z,3.00
2018-12-26T11:42:43.918Z,2.80
2018-12-26T11:45:15.103Z,2.80
2018-12-26T11:47:43.549Z,2.90
2018-12-26T11:50:12.295Z,2.90
2018-12-26T11:52:43.121Z,2.90
2018-12-26T11:55:14.502Z,2.90
2018-12-26T11:57:45.588Z,3.00
2018-12-26T12:00:18.345Z,3.00
2018-12-26T12:02:53.413Z,3.00
2018-12-26T12:05:22.318Z,3.10
2018-12-26T12:07:52.442Z,3.20
2018-12-26T12:10:21.222Z,3.20
2018-12-26T12:13:04.457Z,3.20
2018-12-26T12:15:33.942Z,3.10
2018-12-26T12:18:06.468Z,3.10
2018-12-26T12:20:35.211Z,3.00
2018-12-26T12:23:05.263Z,3.00
2018-12-26T12:25:42.842Z,3.00
2018-12-26T12:28:11.255Z,3.00
2018-12-26T12:30:42.430Z,3.00
2018-12-26T12:33:10.838Z,3.00
2018-12-26T12:35:41.826Z,3.00
2018-12-26T12:38:17.278Z,2.90
2018-12-26T12:40:46.400Z,2.80
2018-12-26T12:43:18.246Z,2.80
2018-12-26T12:45:49.110Z,2.70
2018-12-26T12:48:19.172Z,2.80
2018-12-26T12:50:50.637Z,2.80
2018-12-26T12:53:20.729Z,2.80
2018-12-26T12:56:11.747Z,2.90
2018-12-26T12:58:33.714Z,3.00
2018-12-26T13:01:12.643Z,3.10
2018-12-26T13:03:46.647Z,3.30
2018-12-26T13:06:13.126Z,3.50
2018-12-26T13:08:41.578Z,3.60
2018-12-26T13:11:18.322Z,3.60
2018-12-26T13:13:46.769Z,3.70
2018-12-26T13:16:21.418Z,3.80
2018-12-26T13:18:54.305Z,3.90
2018-12-26T13:21:22.714Z,3.80
2018-12-26T13:23:53.818Z,3.80
2018-12-26T13:26:31.325Z,3.80
2018-12-26T13:29:06.813Z,3.80
2018-12-26T13:31:39.167Z,3.80
2018-12-26T13:34:23.978Z,3.80
2018-12-26T13:36:52.785Z,3.70
2018-12-26T13:39:25.778Z,3.60
2018-12-26T13:41:58.585Z,3.60
2018-12-26T13:44:27.318Z,3.50
2018-12-26T13:46:57.377Z,3.50
2018-12-26T13:49:26.626Z,3.50
2018-12-26T13:52:01.358Z,3.40
2018-12-26T13:54:37.162Z,3.30
2018-12-26T13:57:15.007Z,3.20
2018-12-26T13:59:43.410Z,3.20
2018-12-26T14:02:34.703Z,3.00
2018-12-26T14:04:41.989Z,3.00
2018-12-26T14:07:14.970Z,2.90
2018-12-26T14:09:43.382Z,2.80
2018-12-26T14:12:15.159Z,2.80
2018-12-26T14:14:46.126Z,2.80
2018-12-26T14:17:22.938Z,2.70
2018-12-26T14:19:51.690Z,2.70
2018-12-26T14:22:26.054Z,2.70
2018-12-26T14:24:56.146Z,2.60
2018-12-26T14:27:29.251Z,2.60
2018-12-26T14:29:59.111Z,2.60
2018-12-26T14:32:29.247Z,2.50
2018-12-26T14:35:00.337Z,2.50
2018-12-26T14:37:34.021Z,2.40
2018-12-26T14:40:14.299Z,2.30
2018-12-26T14:42:40.864Z,2.30
2018-12-26T14:45:14.658Z,2.30
2018-12-26T14:47:45.766Z,2.30
2018-12-26T14:50:17.150Z,2.20
2018-12-26T14:52:46.590Z,2.20
2018-12-26T14:55:14.969Z,2.20
2018-12-26T14:57:43.410Z,2.20
2018-12-26T15:00:19.918Z,2.20
2018-12-26T15:02:45.166Z,2.20
2018-12-26T15:05:16.276Z,2.10
2018-12-26T15:07:44.975Z,2.10
2018-12-26T15:10:16.523Z,2.10
2018-12-26T15:12:47.475Z,2.00
2018-12-26T15:15:23.154Z,2.00
2018-12-26T15:17:56.206Z,1.90
2018-12-26T15:20:31.214Z,1.90
2018-12-26T15:23:01.017Z,1.90
2018-12-26T15:25:32.382Z,1.90
2018-12-26T15:28:07.786Z,1.80
2018-12-26T15:30:39.097Z,1.80
2018-12-26T15:33:10.249Z,1.80
2018-12-26T15:35:38.947Z,1.70
2018-12-26T15:38:07.382Z,1.70
2018-12-26T15:40:38.425Z,1.70
2018-12-26T15:43:09.906Z,1.70
2018-12-26T15:45:41.173Z,1.70
2018-12-26T15:48:15.527Z,1.70
2018-12-26T15:50:44.153Z,1.70
2018-12-26T15:53:15.900Z,1.70
2018-12-26T15:55:45.977Z,1.70
2018-12-26T15:58:17.102Z,1.70
2018-12-26T16:00:45.530Z,1.70
2018-12-26T16:03:15.590Z,1.70
2018-12-26T16:05:44.043Z,1.60
2018-12-26T16:08:15.485Z,1.60
2018-12-26T16:10:46.896Z,1.60
2018-12-26T16:13:15.307Z,1.60
2018-12-26T16:15:43.722Z,1.60
2018-12-26T16:18:14.623Z,1.60
2018-12-26T16:20:45.514Z,1.60
2018-12-26T16:23:13.925Z,1.60
2018-12-26T16:25:45.060Z,1.60
2018-12-26T16:28:18.961Z,1.60
2018-12-26T16:30:47.373Z,1.60
2018-12-26T16:33:23.455Z,1.60
2018-12-26T16:35:48.914Z,1.60
2018-12-26T16:38:20.218Z,1.60
2018-12-26T16:40:48.629Z,1.60
2018-12-26T16:43:20.298Z,1.60
2018-12-26T16:45:56.482Z,1.60
2018-12-26T16:48:30.838Z,1.50
2018-12-26T16:51:02.442Z,1.50
2018-12-26T16:53:32.497Z,1.50
2018-12-26T16:56:02.577Z,1.50
2018-12-26T16:58:33.756Z,1.50
2018-12-26T17:01:04.846Z,1.60
2018-12-26T17:03:38.694Z,1.50
2018-12-26T17:06:08.531Z,1.60
2018-12-26T17:08:42.552Z,1.60
2018-12-26T17:11:10.969Z,1.60
2018-12-26T17:13:44.986Z,1.60
2018-12-26T17:16:17.547Z,1.50
2018-12-26T17:18:47.478Z,1.50
2018-12-26T17:21:16.966Z,1.60
2018-12-26T17:23:47.822Z,1.60
2018-12-26T17:26:21.164Z,1.60
2018-12-26T17:28:47.013Z,1.60
2018-12-26T17:31:19.757Z,1.60
2018-12-26T17:33:50.927Z,1.60
2018-12-26T17:36:22.469Z,1.60
2018-12-26T17:38:55.497Z,1.60
2018-12-26T17:41:23.917Z,1.60
2018-12-26T17:43:59.346Z,1.60
2018-12-26T17:46:27.725Z,1.60
2018-12-26T17:49:00.771Z,1.50
2018-12-26T17:51:34.930Z,1.50
2018-12-26T17:54:06.795Z,1.50
2018-12-26T17:56:43.977Z,1.50
2018-12-26T17:59:29.047Z,1.50
2018-12-26T18:02:07.701Z,1.50
2018-12-26T18:04:41.158Z,1.50
2018-12-26T18:07:15.535Z,1.50
2018-12-26T18:09:43.951Z,1.50
2018-12-26T18:12:14.022Z,1.50
2018-12-26T18:14:42.425Z,1.50
2018-12-26T18:17:10.874Z,1.50
2018-12-26T18:19:39.290Z,1.50
2018-12-26T18:22:11.062Z,1.50
2018-12-26T18:24:41.141Z,1.50
2018-12-26T18:27:09.562Z,1.60
2018-12-26T18:29:38.072Z,1.50
2018-12-26T18:32:15.689Z,1.50
2018-12-26T18:34:44.126Z,1.50
2018-12-26T18:37:12.838Z,1.50
2018-12-26T18:39:42.918Z,1.60
2018-12-26T18:42:16.902Z,1.60
2018-12-26T18:44:46.967Z,1.50
2018-12-26T18:47:17.915Z,1.50
2018-12-26T18:49:46.330Z,1.50
2018-12-26T18:52:15.026Z,1.50
2018-12-26T18:54:52.754Z,1.50
2018-12-26T18:57:27.174Z,1.50
2018-12-26T18:59:55.617Z,1.50
2018-12-26T19:02:24.030Z,1.50
2018-12-26T19:04:53.161Z,1.50
2018-12-26T19:07:33.153Z,1.50
2018-12-26T19:10:08.012Z,1.50
2018-12-26T19:12:38.093Z,1.50
2018-12-26T19:15:13.058Z,1.50
2018-12-26T19:17:44.119Z,1.50
2018-12-26T19:20:12.542Z,1.50
2018-12-26T19:22:41.546Z,1.50
2018-12-26T19:25:15.883Z,1.50
2018-12-26T19:27:44.322Z,1.50
2018-12-26T19:30:18.639Z,1.50
2018-12-26T19:32:53.186Z,1.50
2018-12-26T19:35:25.341Z,1.50
2018-12-26T19:37:56.449Z,1.50
2018-12-26T19:40:24.858Z,1.50
2018-12-26T19:42:56.696Z,1.50
2018-12-26T19:45:25.482Z,1.50
2018-12-26T19:47:55.550Z,1.50
2018-12-26T19:50:28.539Z,1.50
2018-12-26T19:52:59.900Z,1.50
2018-12-26T19:55:28.326Z,1.50
2018-12-26T19:57:56.734Z,1.50
2018-12-26T20:00:25.174Z,1.50
2018-12-26T20:02:53.610Z,1.50
2018-12-26T20:05:24.718Z,1.50
2018-12-26T20:07:54.786Z,1.50
2018-12-26T20:10:24.837Z,1.50
2018-12-26T20:12:54.918Z,1.50
2018-12-26T20:15:24.331Z,1.50
2018-12-26T20:17:52.767Z,1.50
2018-12-26T20:20:22.822Z,1.50
2018-12-26T20:22:58.535Z,1.50
2018-12-26T20:25:30.614Z,1.40
2018-12-26T20:28:00.758Z,1.40
2018-12-26T20:30:29.438Z,1.40
2018-12-26T20:32:59.518Z,1.40
2018-12-26T20:35:30.755Z,1.40
2018-12-26T20:38:00.826Z,1.40
2018-12-26T20:40:31.682Z,1.40
2018-12-26T20:43:00.127Z,1.50
2018-12-26T20:45:28.542Z,1.50
2018-12-26T20:47:57.306Z,1.50
2018-12-26T20:50:30.261Z,1.50
2018-12-26T20:53:00.242Z,1.50
2018-12-26T20:55:37.249Z,1.50
2018-12-26T20:58:05.663Z,1.50
2018-12-26T21:00:34.619Z,1.50
2018-12-26T21:03:05.914Z,1.60
2018-12-26T21:05:43.166Z,1.60
2018-12-26T21:08:17.141Z,1.60
2018-12-26T21:10:48.702Z,1.60
2018-12-26T21:13:21.725Z,1.70
2018-12-26T21:15:54.171Z,1.70
2018-12-26T21:18:25.627Z,1.70
2018-12-26T21:20:59.462Z,1.70
2018-12-26T21:23:29.522Z,1.70
2018-12-26T21:26:01.239Z,1.70
2018-12-26T21:28:32.085Z,1.70
2018-12-26T21:31:02.171Z,1.70
2018-12-26T21:33:42.693Z,1.70
2018-12-26T21:36:15.606Z,1.70
2018-12-26T21:38:53.230Z,1.70
2018-12-26T21:41:23.329Z,1.80
2018-12-26T21:43:53.378Z,1.80
2018-12-26T21:46:21.822Z,1.80
2018-12-26T21:48:50.487Z,1.80
2018-12-26T21:51:24.539Z,1.80
2018-12-26T21:53:56.366Z,1.80
2018-12-26T21:56:25.043Z,1.80
2018-12-26T21:59:02.163Z,1.80
2018-12-26T22:01:30.571Z,1.80
2018-12-26T22:04:01.675Z,1.80
2018-12-26T22:06:44.041Z,1.80
2018-12-26T22:09:18.386Z,1.80
2018-12-26T22:11:48.784Z,1.80
2018-12-26T22:14:26.094Z,1.90
2018-12-26T22:16:59.145Z,1.80
2018-12-26T22:19:27.556Z,1.90
2018-12-26T22:21:58.164Z,1.90
2018-12-26T22:24:35.037Z,1.90
2018-12-26T22:27:03.481Z,1.90
2018-12-26T22:29:34.970Z,1.80
2018-12-26T22:32:09.418Z,1.80
2018-12-26T22:34:37.830Z,1.70
2018-12-26T22:37:07.913Z,1.70
2018-12-26T22:39:36.978Z,1.70
2018-12-26T22:42:07.974Z,1.70
2018-12-26T22:44:39.438Z,1.70
2018-12-26T22:47:10.562Z,1.60
2018-12-26T22:49:39.278Z,1.60
2018-12-26T22:52:12.069Z,1.60
2018-12-26T22:54:40.490Z,1.60
2018-12-26T22:57:09.746Z,1.60
2018-12-26T22:59:38.190Z,1.50
2018-12-26T23:02:06.681Z,1.50
2018-12-26T23:04:36.434Z,1.50
2018-12-26T23:07:05.022Z,1.40
2018-12-26T23:09:35.111Z,1.40
2018-12-26T23:12:10.950Z,1.40
2018-12-26T23:14:42.424Z,1.40
2018-12-26T23:17:14.062Z,1.40
2018-12-26T23:19:51.336Z,1.40
2018-12-26T23:22:19.754Z,1.50
2018-12-26T23:24:50.953Z,1.50
2018-12-26T23:27:21.933Z,1.50
2018-12-26T23:29:56.040Z,1.50
2018-12-26T23:32:32.498Z,1.50
2018-12-26T23:35:06.770Z,1.50
2018-12-26T23:37:35.202Z,1.60
2018-12-26T23:40:04.294Z,1.50
2018-12-26T23:42:35.634Z,1.50
2018-12-26T23:45:11.538Z,1.50
2018-12-26T23:47:39.951Z,1.50
2018-12-26T23:50:14.137Z,1.50
2018-12-26T23:52:47.792Z,1.50
2018-12-26T23:55:24.010Z,1.50
2018-12-26T23:57:52.442Z,1.50
